Time;durP1;ratioP1;P1;durP2;ratioP2;P2;SDS_P1;SDS_P2;PMS_P1;PMS_P2;Temp;Humidity;BMP_temperature;BMP_pressure;BME280_temperature;BME280_humidity;BME280_pressure;Samples;Min_cycle;Max_cycle;Signal;HPM_P1;HPM_P2
2024/01/25 00:02:24;;;;;;;31.63;5.32;;;8.80;99.90;;;;;;5066344;28;20034;-90
2024/01/25 00:04:49;;;;;;;45.17;7.38;;;8.80;99.90;;;;;;5057549;28;20043;-90
2024/01/25 00:07:33;;;;;;;39.10;6.22;;;8.70;99.90;;;;;;5059160;28;20035;-90
2024/01/25 00:09:59;;;;;;;34.13;5.90;;;10.00;99.90;;;;;;5062528;28;20163;-90
2024/01/25 00:12:24;;;;;;;39.10;6.72;;;9.60;99.90;;;;;;5064074;28;20492;-91
2024/01/25 00:14:52;;;;;;;37.33;5.90;;;9.00;99.90;;;;;;5059549;28;20393;-91
2024/01/25 00:17:17;;;;;;;29.40;5.22;;;8.70;99.90;;;;;;5060930;28;20036;-91
2024/01/25 00:19:43;;;;;;;34.63;5.75;;;8.70;99.90;;;;;;5062892;28;20024;-90
2024/01/25 00:22:09;;;;;;;48.80;6.80;;;8.60;99.90;;;;;;5065072;28;20029;-89
2024/01/25 00:24:34;;;;;;;36.97;6.15;;;8.60;99.90;;;;;;5070606;28;20020;-89
2024/01/25 00:27:00;;;;;;;45.95;6.63;;;8.50;99.90;;;;;;5069418;28;20079;-89
2024/01/25 00:29:25;;;;;;;43.80;6.35;;;8.50;99.90;;;;;;5064966;28;20445;-88
2024/01/25 00:31:51;;;;;;;38.75;6.45;;;8.40;99.90;;;;;;5089136;23;20118;-89
2024/01/25 00:34:17;;;;;;;35.35;6.13;;;8.50;99.90;;;;;;5070362;28;20035;-90
2024/01/25 00:36:43;;;;;;;44.22;7.90;;;8.40;99.90;;;;;;5070999;28;20121;-89
2024/01/25 00:39:08;;;;;;;30.40;6.85;;;8.40;99.90;;;;;;5062542;28;20481;-89
2024/01/25 00:41:35;;;;;;;39.38;6.28;;;8.40;99.90;;;;;;5052671;28;20024;-89
2024/01/25 00:44:01;;;;;;;46.92;7.35;;;8.40;99.90;;;;;;5053315;28;20074;-91
2024/01/25 00:46:27;;;;;;;39.35;6.70;;;8.40;99.90;;;;;;5053622;28;20112;-93
2024/01/25 00:48:52;;;;;;;34.25;6.40;;;8.40;99.90;;;;;;5053110;28;20036;-90
2024/01/25 00:51:22;;;;;;;33.05;6.90;;;8.40;99.90;;;;;;5053567;28;20108;-90
2024/01/25 00:53:48;;;;;;;32.78;6.22;;;8.40;99.90;;;;;;5054119;28;20029;-93
2024/01/25 00:56:14;;;;;;;37.95;7.15;;;8.30;99.90;;;;;;5052962;28;20112;-92
2024/01/25 00:58:41;;;;;;;36.05;6.93;;;8.30;99.90;;;;;;5053007;28;20476;-91
2024/01/25 01:01:07;;;;;;;44.90;6.43;;;8.20;99.90;;;;;;5052902;28;20112;-91
2024/01/25 01:03:33;;;;;;;30.08;6.13;;;8.20;99.90;;;;;;5052990;28;20052;-92
2024/01/25 01:05:59;;;;;;;44.83;7.60;;;8.20;99.90;;;;;;5053022;28;20480;-91
2024/01/25 01:08:26;;;;;;;29.90;5.28;;;8.20;99.90;;;;;;5056274;28;20035;-91
2024/01/25 01:10:51;;;;;;;42.80;6.22;;;8.20;99.90;;;;;;5071000;28;20321;-93
2024/01/25 01:13:17;;;;;;;27.05;5.22;;;8.10;99.90;;;;;;5070558;28;20045;-92
2024/01/25 01:15:42;;;;;;;48.88;5.97;;;8.10;99.90;;;;;;5070929;28;20025;-91
2024/01/25 01:18:08;;;;;;;35.05;5.78;;;8.10;99.90;;;;;;5070821;28;20498;-92
2024/01/25 01:20:33;;;;;;;32.50;6.03;;;8.10;99.90;;;;;;5070471;28;20490;-93
2024/01/25 01:22:59;;;;;;;36.13;6.20;;;8.10;99.90;;;;;;5066549;28;20560;-92
2024/01/25 01:25:24;;;;;;;31.83;6.18;;;8.10;99.90;;;;;;5080680;28;20046;-91
2024/01/25 01:27:50;;;;;;;41.35;6.28;;;8.10;99.90;;;;;;5077813;28;20116;-91
2024/01/25 01:30:15;;;;;;;35.90;7.28;;;8.10;99.90;;;;;;5068478;28;20064;-91
2024/01/25 01:32:41;;;;;;;38.75;6.70;;;8.10;99.90;;;;;;5069352;28;20052;-92
2024/01/25 01:35:07;;;;;;;43.95;7.05;;;8.00;99.90;;;;;;5070632;28;20026;-90
2024/01/25 01:37:32;;;;;;;40.25;6.18;;;8.00;99.90;;;;;;5069169;28;20036;-91
2024/01/25 01:39:59;;;;;;;41.17;6.57;;;8.00;99.90;;;;;;5066738;28;20177;-91
2024/01/25 01:42:25;;;;;;;37.83;6.07;;;7.90;99.90;;;;;;5066485;28;20025;-90
2024/01/25 01:44:52;;;;;;;39.70;6.63;;;7.90;99.90;;;;;;5070270;28;20040;-91
2024/01/25 01:47:17;;;;;;;37.92;6.63;;;7.90;99.90;;;;;;5070818;28;20122;-91
2024/01/25 01:49:43;;;;;;;43.35;6.72;;;7.90;99.90;;;;;;5070270;28;20117;-91
2024/01/25 01:52:09;;;;;;;37.30;6.15;;;7.90;99.90;;;;;;5074477;28;20392;-91
2024/01/25 01:54:36;;;;;;;37.53;6.45;;;7.90;99.90;;;;;;5073430;28;20033;-90
2024/01/25 01:57:02;;;;;;;40.45;6.53;;;7.90;99.90;;;;;;5074252;28;20122;-91
2024/01/25 01:59:29;;;;;;;37.10;5.82;;;7.90;99.90;;;;;;5072097;28;20043;-90
2024/01/25 02:01:54;;;;;;;44.92;6.50;;;7.90;99.90;;;;;;5070002;28;20033;-91
2024/01/25 02:04:20;;;;;;;37.97;6.15;;;7.80;99.90;;;;;;5071661;28;20036;-90
2024/01/25 02:06:45;;;;;;;45.03;7.00;;;7.80;99.90;;;;;;5073602;28;20071;-91
2024/01/25 02:09:12;;;;;;;35.72;4.93;;;7.80;99.90;;;;;;5074042;28;20668;-90
2024/01/25 02:11:38;;;;;;;37.92;6.35;;;7.80;99.90;;;;;;5070141;28;20056;-89
2024/01/25 02:14:03;;;;;;;34.55;7.50;;;7.80;99.90;;;;;;5074398;28;20496;-91
2024/01/25 02:16:29;;;;;;;52.33;6.75;;;7.70;99.90;;;;;;5074778;28;20021;-92
2024/01/25 02:18:57;;;;;;;35.80;6.13;;;7.70;99.90;;;;;;5077453;28;20037;-89
2024/01/25 02:21:22;;;;;;;35.85;6.10;;;7.70;99.90;;;;;;5088533;28;20039;-91
2024/01/25 02:23:48;;;;;;;38.15;7.68;;;7.70;99.90;;;;;;5070223;28;20119;-90
2024/01/25 02:26:13;;;;;;;36.63;6.25;;;7.70;99.90;;;;;;5071756;28;20024;-92
2024/01/25 02:28:39;;;;;;;44.78;6.45;;;7.60;99.90;;;;;;5074160;28;20048;-92
2024/01/25 02:31:04;;;;;;;32.38;5.50;;;7.60;99.90;;;;;;5073963;28;20037;-90
2024/01/25 02:33:30;;;;;;;39.00;5.72;;;7.70;99.90;;;;;;5073963;28;20024;-92
2024/01/25 02:35:56;;;;;;;40.40;6.47;;;7.70;99.90;;;;;;5072451;28;20032;-92
2024/01/25 02:38:21;;;;;;;36.40;6.07;;;7.70;99.90;;;;;;5138609;22;20173;-91
2024/01/25 02:40:59;;;;;;;47.30;6.25;;;7.70;99.90;;;;;;5086634;28;20028;-90
2024/01/25 02:43:24;;;;;;;37.78;6.15;;;7.80;99.90;;;;;;5084524;28;20028;-90
2024/01/25 02:45:50;;;;;;;31.42;5.30;;;7.80;99.90;;;;;;5087033;28;20043;-89
2024/01/25 02:48:16;;;;;;;28.80;5.40;;;7.90;99.90;;;;;;5079506;28;20028;-91
2024/01/25 02:50:57;;;;;;;32.55;5.80;;;9.10;99.90;;;;;;5078679;28;20028;-91
2024/01/25 02:53:22;;;;;;;27.55;4.90;;;8.00;99.90;;;;;;5087599;28;20027;-91
2024/01/25 02:55:48;;;;;;;32.50;6.38;;;8.60;99.90;;;;;;5084466;28;20381;-92
2024/01/25 02:58:14;;;;;;;37.63;5.32;;;8.00;99.90;;;;;;5090472;28;20397;-91
2024/01/25 03:01:01;;;;;;;44.15;6.88;;;8.40;99.90;;;;;;5080395;28;20025;-91
2024/01/25 03:03:26;;;;;;;35.05;6.25;;;7.90;99.90;;;;;;5083280;28;20042;-92
2024/01/25 03:05:52;;;;;;;34.05;6.25;;;8.70;99.90;;;;;;5078344;28;20032;-92
2024/01/25 03:08:18;;;;;;;27.98;5.78;;;9.00;99.90;;;;;;5092789;28;20055;-89
2024/01/25 03:10:44;;;;;;;40.20;5.93;;;8.10;99.90;;;;;;5095110;28;20024;-90
2024/01/25 03:13:10;;;;;;;26.67;6.07;;;7.80;99.90;;;;;;5096077;28;20022;-91
2024/01/25 03:15:36;;;;;;;29.33;5.53;;;7.80;99.90;;;;;;5091126;28;20119;-91
2024/01/25 03:18:01;;;;;;;33.63;6.38;;;9.00;99.90;;;;;;5094836;28;20126;-90
2024/01/25 03:20:27;;;;;;;26.60;4.95;;;9.00;99.90;;;;;;5095483;28;20046;-90
2024/01/25 03:22:54;;;;;;;37.53;5.53;;;7.80;99.90;;;;;;5094537;28;20081;-91
2024/01/25 03:25:19;;;;;;;46.33;6.70;;;9.00;99.90;;;;;;5095019;28;20024;-91
2024/01/25 03:27:46;;;;;;;35.10;6.60;;;7.90;99.90;;;;;;5083848;28;20120;-91
2024/01/25 03:30:12;;;;;;;22.88;5.63;;;8.30;99.90;;;;;;5090795;28;20039;-90
2024/01/25 03:32:38;;;;;;;37.20;5.55;;;8.00;99.90;;;;;;5101460;28;20020;-87
2024/01/25 03:35:03;;;;;;;37.17;5.93;;;8.00;99.90;;;;;;5110448;28;20073;-91
2024/01/25 03:37:29;;;;;;;34.72;8.32;;;7.90;99.90;;;;;;5105099;28;20056;-88
2024/01/25 03:39:55;;;;;;;39.70;6.13;;;7.90;99.90;;;;;;5104884;28;20040;-89
2024/01/25 03:42:20;;;;;;;38.97;6.70;;;7.90;99.90;;;;;;5103698;28;20050;-91
2024/01/25 03:44:47;;;;;;;41.75;7.97;;;7.90;99.90;;;;;;5094004;28;20020;-91
2024/01/25 03:47:12;;;;;;;35.88;5.55;;;7.90;99.90;;;;;;5093059;28;20468;-93
2024/01/25 03:49:38;;;;;;;32.45;5.93;;;7.80;99.90;;;;;;5083476;28;20025;-91
2024/01/25 03:52:04;;;;;;;28.02;6.03;;;7.80;99.90;;;;;;5093658;28;20016;-90
2024/01/25 03:54:30;;;;;;;36.67;6.15;;;7.80;99.90;;;;;;5094576;28;20039;-93
2024/01/25 03:56:56;;;;;;;40.42;7.60;;;7.80;99.90;;;;;;5094017;28;20384;-90
2024/01/25 03:59:21;;;;;;;35.35;6.57;;;7.80;99.90;;;;;;5094397;28;20046;-91
2024/01/25 04:01:47;;;;;;;27.58;5.15;;;7.80;99.90;;;;;;5094405;28;20024;-91
2024/01/25 04:04:16;;;;;;;38.58;6.93;;;7.80;99.90;;;;;;5076647;28;20758;-91
2024/01/25 04:06:42;;;;;;;39.63;7.03;;;7.80;99.90;;;;;;5095932;28;20016;-91
2024/01/25 04:09:08;;;;;;;33.25;6.95;;;7.90;99.90;;;;;;5108414;28;20119;-90
2024/01/25 04:11:35;;;;;;;34.05;6.85;;;7.90;99.90;;;;;;5085960;28;20484;-90
2024/01/25 04:14:00;;;;;;;34.42;7.13;;;7.90;99.90;;;;;;5080378;28;20028;-90
2024/01/25 04:16:26;;;;;;;27.13;5.50;;;7.90;99.90;;;;;;5085549;28;20467;-89
2024/01/25 04:18:52;;;;;;;31.92;6.25;;;7.90;99.90;;;;;;5083751;28;20036;-90
2024/01/25 04:21:17;;;;;;;29.73;5.65;;;7.90;99.90;;;;;;5079947;28;20097;-89
2024/01/25 04:23:43;;;;;;;38.42;6.53;;;7.70;99.90;;;;;;5083447;28;20040;-91
2024/01/25 04:26:08;;;;;;;29.23;6.80;;;7.70;99.90;;;;;;5077818;28;20032;-90
2024/01/25 04:28:34;;;;;;;26.85;6.18;;;7.70;99.90;;;;;;5079314;28;20028;-89
2024/01/25 04:30:59;;;;;;;29.83;5.78;;;7.60;99.90;;;;;;5089118;28;20097;-90
2024/01/25 04:33:28;;;;;;;38.15;6.47;;;7.60;99.90;;;;;;5077504;28;20071;-90
2024/01/25 04:35:54;;;;;;;29.27;5.70;;;7.90;99.90;;;;;;5079885;28;20028;-90
2024/01/25 04:38:19;;;;;;;37.03;7.15;;;7.60;99.90;;;;;;5083724;28;20492;-90
2024/01/25 04:40:57;;;;;;;37.25;5.80;;;7.60;99.90;;;;;;5084047;28;20156;-91
2024/01/25 04:43:23;;;;;;;38.40;8.20;;;6.80;99.90;;;;;;5093462;28;20653;-88
2024/01/25 04:45:48;;;;;;;32.95;5.80;;;7.50;99.90;;;;;;5087926;28;20029;-88
2024/01/25 04:48:14;;;;;;;36.72;6.50;;;8.20;99.90;;;;;;5072582;28;20071;-89
2024/01/25 04:50:39;;;;;;;28.70;5.93;;;7.50;99.90;;;;;;5075481;28;20032;-88
2024/01/25 04:53:17;;;;;;;42.33;5.95;;;7.50;99.90;;;;;;5082423;28;20120;-88
2024/01/25 04:55:43;;;;;;;28.08;6.05;;;7.80;99.90;;;;;;5081109;28;20021;-87
2024/01/25 04:58:08;;;;;;;28.42;6.32;;;7.50;99.90;;;;;;5075482;28;20036;-88
2024/01/25 05:00:35;;;;;;;40.40;6.82;;;7.50;99.90;;;;;;5074520;28;20032;-87
2024/01/25 05:03:07;;;;;;;45.50;6.70;;;7.50;99.90;;;;;;5077737;28;20070;-88
2024/01/25 05:05:32;;;;;;;50.55;7.97;;;6.60;99.90;;;;;;5078282;28;20052;-87
2024/01/25 05:07:58;;;;;;;32.28;5.45;;;7.50;99.90;;;;;;5079679;28;20040;-87
2024/01/25 05:10:25;;;;;;;36.60;7.10;;;7.40;99.90;;;;;;5083348;28;20036;-86
2024/01/25 05:12:50;;;;;;;30.77;5.85;;;7.30;99.90;;;;;;5083662;28;20032;-87
2024/01/25 05:15:16;;;;;;;29.92;6.63;;;7.30;99.90;;;;;;5076695;28;20107;-89
2024/01/25 05:17:42;;;;;;;33.08;5.20;;;7.20;99.90;;;;;;5079030;28;20036;-89
2024/01/25 05:20:20;;;;;;;29.05;5.22;;;7.20;99.90;;;;;;5080823;28;20396;-93
2024/01/25 05:22:46;;;;;;;35.70;6.20;;;8.20;99.90;;;;;;5082012;28;20092;-91
2024/01/25 05:25:11;;;;;;;35.78;6.28;;;7.30;99.90;;;;;;5114321;28;20024;-91
2024/01/25 05:27:37;;;;;;;22.92;6.47;;;7.20;99.90;;;;;;5110078;28;20134;-92
2024/01/25 05:30:10;;;;;;;29.60;6.03;;;8.00;99.90;;;;;;5102504;28;20032;-90
2024/01/25 05:32:35;;;;;;;37.78;6.57;;;7.20;99.90;;;;;;5080640;28;20051;-90
2024/01/25 05:35:17;;;;;;;34.40;6.15;;;7.20;99.90;;;;;;5089982;28;20459;-89
2024/01/25 05:37:44;;;;;;;40.50;6.28;;;7.10;99.90;;;;;;5080513;28;20056;-88
2024/01/25 05:40:10;;;;;;;27.58;5.30;;;7.20;99.90;;;;;;5079936;28;20039;-89
2024/01/25 05:42:36;;;;;;;31.15;6.80;;;7.30;99.90;;;;;;5079253;28;20032;-90
2024/01/25 05:45:05;;;;;;;39.10;6.13;;;7.30;99.90;;;;;;5081769;28;20029;-91
2024/01/25 05:47:30;;;;;;;37.60;7.82;;;8.20;99.90;;;;;;5086783;28;20020;-90
2024/01/25 05:49:57;;;;;;;42.53;6.97;;;7.30;99.90;;;;;;5081763;28;20074;-89
2024/01/25 05:52:23;;;;;;;45.38;5.82;;;7.20;99.90;;;;;;5081442;28;20028;-90
2024/01/25 05:54:49;;;;;;;40.47;6.85;;;7.20;99.90;;;;;;5083690;28;20067;-90
2024/01/25 05:57:15;;;;;;;50.38;7.75;;;7.20;99.90;;;;;;5090824;28;20032;-88
2024/01/25 05:59:41;;;;;;;41.58;7.32;;;7.20;99.90;;;;;;5081679;28;20037;-89
2024/01/25 06:02:08;;;;;;;36.53;6.90;;;7.20;99.90;;;;;;5067488;28;20105;-90
2024/01/25 06:04:34;;;;;;;31.92;6.10;;;7.20;99.90;;;;;;5089347;28;20395;-90
2024/01/25 06:07:00;;;;;;;44.15;6.65;;;7.20;99.90;;;;;;5085794;28;20039;-89
2024/01/25 06:09:25;;;;;;;37.20;7.95;;;7.70;99.90;;;;;;5087740;28;20115;-91
2024/01/25 06:11:51;;;;;;;48.80;6.90;;;7.20;99.90;;;;;;5088409;28;20024;-92
2024/01/25 06:14:17;;;;;;;38.45;6.93;;;7.20;99.90;;;;;;5085045;28;20097;-92
2024/01/25 06:16:43;;;;;;;39.60;6.53;;;7.90;99.90;;;;;;5080847;28;20107;-91
2024/01/25 06:19:08;;;;;;;34.97;5.97;;;7.80;99.90;;;;;;5063933;28;20492;-91
2024/01/25 06:21:35;;;;;;;34.70;6.72;;;7.20;99.90;;;;;;5081616;28;20119;-90
2024/01/25 06:24:16;;;;;;;43.97;7.75;;;7.30;99.90;;;;;;5083203;28;20048;-89
2024/01/25 06:26:41;;;;;;;38.05;6.50;;;8.30;99.90;;;;;;5084437;28;20039;-90
2024/01/25 06:29:10;;;;;;;35.45;6.75;;;7.10;99.90;;;;;;5086924;28;20387;-90
2024/01/25 06:32:03;;;;;;;44.30;6.78;;;8.00;99.90;;;;;;5083960;28;20077;-92
2024/01/25 06:34:28;;;;;;;36.05;7.20;;;8.10;99.90;;;;;;5079387;28;20459;-88
2024/01/25 06:37:15;;;;;;;33.55;6.78;;;7.10;99.90;;;;;;5088579;28;20131;-90
2024/01/25 06:39:40;;;;;;;34.22;7.75;;;7.10;99.90;;;;;;5081599;28;20032;-89
2024/01/25 06:42:06;;;;;;;39.75;6.57;;;7.10;99.90;;;;;;5082289;28;20030;-90
2024/01/25 06:44:32;;;;;;;28.50;7.15;;;7.10;99.90;;;;;;5088643;28;20051;-89
2024/01/25 06:46:58;;;;;;;35.80;6.90;;;7.10;99.90;;;;;;5081461;28;20020;-89
2024/01/25 06:49:23;;;;;;;38.63;7.60;;;7.00;99.90;;;;;;5109715;22;20048;-87
2024/01/25 06:51:50;;;;;;;30.52;6.72;;;7.00;99.90;;;;;;5080306;28;20025;-89
2024/01/25 06:54:16;;;;;;;47.47;6.78;;;7.00;99.90;;;;;;5079438;28;20131;-90
2024/01/25 06:56:42;;;;;;;39.35;7.25;;;7.00;99.90;;;;;;5074494;28;20479;-89
2024/01/25 06:59:07;;;;;;;31.15;6.53;;;7.00;99.90;;;;;;5075281;28;20035;-88
2024/01/25 07:01:33;;;;;;;34.13;5.85;;;7.00;99.90;;;;;;5073620;28;20484;-89
2024/01/25 07:03:58;;;;;;;50.63;8.95;;;7.10;99.90;;;;;;5075519;28;20020;-89
2024/01/25 07:06:24;;;;;;;50.97;8.00;;;7.10;99.90;;;;;;5073044;28;20119;-90
2024/01/25 07:08:50;;;;;;;41.55;6.28;;;7.00;99.90;;;;;;5074170;28;20024;-88
2024/01/25 07:11:17;;;;;;;41.92;8.00;;;6.90;99.90;;;;;;5060606;28;20025;-88
2024/01/25 07:13:42;;;;;;;42.30;7.68;;;6.90;99.90;;;;;;5075006;28;20033;-89
2024/01/25 07:16:09;;;;;;;45.90;7.55;;;6.80;99.90;;;;;;5071287;28;20040;-88
2024/01/25 07:18:34;;;;;;;42.42;7.53;;;6.80;99.90;;;;;;5080264;28;20036;-89
2024/01/25 07:21:00;;;;;;;50.30;7.45;;;6.70;99.90;;;;;;5074238;28;20021;-88
2024/01/25 07:23:26;;;;;;;37.90;6.88;;;6.70;99.90;;;;;;5063890;28;20025;-91
2024/01/25 07:25:53;;;;;;;56.22;8.73;;;6.70;99.90;;;;;;5046322;28;20055;-90
2024/01/25 07:28:19;;;;;;;46.85;7.47;;;6.70;99.90;;;;;;5064680;28;20052;-89
2024/01/25 07:30:47;;;;;;;42.22;7.95;;;6.70;99.90;;;;;;5060519;28;20063;-88
2024/01/25 07:33:12;;;;;;;41.40;6.07;;;6.80;99.90;;;;;;5061656;28;20070;-85
2024/01/25 07:35:42;;;;;;;38.40;6.40;;;6.80;99.90;;;;;;5061051;28;22593;-90
2024/01/25 07:38:07;;;;;;;27.77;5.50;;;6.80;99.90;;;;;;5062161;28;20494;-91
2024/01/25 07:40:33;;;;;;;40.40;5.47;;;6.80;99.90;;;;;;5061675;28;20060;-89
2024/01/25 07:42:58;;;;;;;41.67;7.18;;;6.80;99.90;;;;;;5064510;28;20032;-89
2024/01/25 07:45:25;;;;;;;45.13;7.28;;;6.80;99.90;;;;;;5072392;28;20071;-92
2024/01/25 07:47:50;;;;;;;34.10;5.85;;;6.70;99.90;;;;;;5062119;28;20041;-91
2024/01/25 07:50:17;;;;;;;41.85;6.63;;;6.70;99.90;;;;;;5064162;28;20028;-90
2024/01/25 07:52:42;;;;;;;37.05;6.57;;;6.70;99.90;;;;;;5058169;28;20037;-89
2024/01/25 07:55:08;;;;;;;42.45;7.35;;;6.80;99.90;;;;;;5066684;28;20036;-91
2024/01/25 07:57:34;;;;;;;50.55;7.10;;;6.80;99.90;;;;;;5070309;28;20036;-91
2024/01/25 07:59:59;;;;;;;37.17;6.22;;;6.80;99.90;;;;;;5087036;28;20044;-92
2024/01/25 08:02:25;;;;;;;30.15;5.97;;;6.80;99.90;;;;;;5083140;28;20079;-90
2024/01/25 08:04:50;;;;;;;47.67;6.35;;;6.80;99.90;;;;;;5084234;28;20049;-90
2024/01/25 08:07:16;;;;;;;36.40;6.88;;;6.80;99.90;;;;;;5069921;28;20502;-88
2024/01/25 08:09:44;;;;;;;43.35;7.13;;;6.80;99.90;;;;;;5069978;28;20063;-92
2024/01/25 08:12:30;;;;;;;36.30;6.95;;;7.10;99.90;;;;;;5062599;28;20032;-91
2024/01/25 08:14:56;;;;;;;31.05;5.60;;;8.00;99.90;;;;;;5069170;28;20036;-90
2024/01/25 08:17:22;;;;;;;37.75;6.90;;;6.80;99.90;;;;;;5065661;28;20334;-89
2024/01/25 08:20:06;;;;;;;40.42;6.75;;;8.20;99.90;;;;;;5072539;28;20029;-85
2024/01/25 08:22:33;;;;;;;45.95;6.47;;;7.00;99.90;;;;;;5103662;22;20527;-90
2024/01/25 08:24:58;;;;;;;36.35;7.15;;;7.00;99.90;;;;;;5092381;28;20035;-91
2024/01/25 08:27:24;;;;;;;37.67;7.43;;;7.00;99.90;;;;;;5074447;28;20025;-90
2024/01/25 08:30:12;;;;;;;26.80;6.60;;;7.30;99.90;;;;;;5104177;23;20500;-91
2024/01/25 08:32:37;;;;;;;30.92;6.88;;;7.00;99.90;;;;;;5072223;28;20033;-89
2024/01/25 08:35:06;;;;;;;33.15;7.75;;;8.20;99.90;;;;;;5062183;28;20033;-90
2024/01/25 08:37:32;;;;;;;35.95;7.47;;;7.00;99.90;;;;;;5067118;28;20040;-89
2024/01/25 08:39:58;;;;;;;41.58;6.90;;;7.00;99.90;;;;;;5071062;28;20078;-87
2024/01/25 08:42:24;;;;;;;42.15;6.75;;;7.00;99.90;;;;;;5053048;28;20033;-88
2024/01/25 08:44:49;;;;;;;28.08;7.40;;;7.60;99.90;;;;;;5059844;28;20370;-89
2024/01/25 08:47:17;;;;;;;41.83;6.70;;;6.90;99.90;;;;;;5060910;28;20033;-89
2024/01/25 08:49:42;;;;;;;42.00;7.45;;;6.80;99.90;;;;;;5066453;28;20032;-84
2024/01/25 08:52:09;;;;;;;38.97;7.15;;;7.20;99.90;;;;;;5056695;28;20036;-84
2024/01/25 08:54:36;;;;;;;39.75;6.60;;;6.70;99.90;;;;;;5050094;28;20033;-88
2024/01/25 08:57:03;;;;;;;30.42;7.38;;;6.70;99.90;;;;;;5073044;28;20110;-94
2024/01/25 08:59:30;;;;;;;39.03;7.25;;;6.80;99.90;;;;;;5072290;28;20035;-87
2024/01/25 09:01:56;;;;;;;40.42;7.22;;;6.80;99.90;;;;;;5053801;28;20021;-90
2024/01/25 09:04:22;;;;;;;42.20;8.57;;;6.70;99.90;;;;;;5067840;28;20020;-90
2024/01/25 09:06:47;;;;;;;46.85;7.50;;;6.90;99.90;;;;;;5072635;28;20025;-88
2024/01/25 09:09:13;;;;;;;40.53;8.25;;;6.90;99.90;;;;;;5064924;28;20032;-92
2024/01/25 09:11:41;;;;;;;36.67;8.05;;;7.00;99.90;;;;;;5071291;28;20016;-91
2024/01/25 09:14:08;;;;;;;36.85;7.30;;;7.00;99.90;;;;;;5071405;28;20024;-90
2024/01/25 09:16:37;;;;;;;37.08;7.57;;;7.00;99.90;;;;;;5071094;28;20020;-94
2024/01/25 09:19:02;;;;;;;42.78;7.72;;;7.00;99.90;;;;;;5073459;28;20021;-88
2024/01/25 09:21:28;;;;;;;36.08;7.65;;;7.10;99.90;;;;;;5073861;28;20023;-91
2024/01/25 09:23:53;;;;;;;31.10;7.15;;;7.20;99.90;;;;;;5073732;28;20074;-90
2024/01/25 09:26:19;;;;;;;37.55;7.45;;;7.20;99.90;;;;;;5063861;28;20025;-91
2024/01/25 09:28:44;;;;;;;33.40;7.25;;;7.20;99.90;;;;;;5052828;28;20132;-91
2024/01/25 09:31:10;;;;;;;33.60;7.50;;;7.30;99.90;;;;;;5062840;28;20025;-88
2024/01/25 09:33:36;;;;;;;37.58;6.93;;;7.30;99.90;;;;;;5079280;28;20036;-91
2024/01/25 09:36:01;;;;;;;41.67;7.97;;;7.30;99.90;;;;;;5059448;28;20496;-92
2024/01/25 09:38:27;;;;;;;38.35;7.18;;;7.30;99.90;;;;;;5065953;28;20040;-93
2024/01/25 09:40:53;;;;;;;42.92;7.82;;;7.30;99.90;;;;;;5071785;28;20028;-92
2024/01/25 09:43:20;;;;;;;24.23;6.55;;;8.20;99.90;;;;;;5070601;28;20029;-91
2024/01/25 09:46:06;;;;;;;35.85;8.75;;;7.20;99.90;;;;;;5064906;28;20051;-91
2024/01/25 09:48:33;;;;;;;41.72;8.38;;;7.20;99.90;;;;;;5065304;28;20036;-92
2024/01/25 09:50:59;;;;;;;42.60;7.15;;;7.20;99.90;;;;;;5081770;28;20081;-88
2024/01/25 09:53:48;;;;;;;37.50;7.88;;;7.20;99.90;;;;;;5080200;28;20056;-91
2024/01/25 09:56:38;;;;;;;37.33;7.43;;;6.80;99.90;;;;;;5080323;28;20025;-88
2024/01/25 09:59:04;;;;;;;41.67;7.55;;;8.00;99.90;;;;;;5085893;28;20032;-89
2024/01/25 10:01:30;;;;;;;35.65;7.47;;;8.30;99.90;;;;;;5080033;28;20024;-93
2024/01/25 10:03:56;;;;;;;30.15;7.35;;;7.90;99.90;;;;;;5066164;28;20047;-91
2024/01/25 10:06:43;;;;;;;38.40;7.60;;;8.30;99.90;;;;;;5068565;28;20024;-91
2024/01/25 10:09:09;;;;;;;35.40;7.18;;;7.20;99.90;;;;;;5055953;28;20369;-91
2024/01/25 10:11:35;;;;;;;32.38;6.85;;;7.30;99.90;;;;;;5070738;28;20029;-91
2024/01/25 10:14:10;;;;;;;50.65;9.30;;;8.40;99.90;;;;;;5075941;28;20035;-90
2024/01/25 10:16:35;;;;;;;40.75;8.45;;;8.10;99.90;;;;;;5075698;28;20032;-91
2024/01/25 10:19:06;;;;;;;37.45;7.05;;;8.20;99.90;;;;;;5071699;28;20029;-91
2024/01/25 10:21:31;;;;;;;39.60;8.05;;;8.40;99.90;;;;;;5076311;28;20047;-90
2024/01/25 10:24:19;;;;;;;36.97;7.20;;;8.20;99.90;;;;;;5077412;28;20040;-90
2024/01/25 10:29:30;;;;;;;31.55;7.43;;;8.40;99.90;;;;;;4973181;28;20039;-91
2024/01/25 10:32:15;;;;;;;30.58;8.32;;;8.30;99.90;;;;;;4967516;28;20475;-92
2024/01/25 10:34:42;;;;;;;49.92;9.10;;;8.20;99.90;;;;;;4974586;28;20019;-92
2024/01/25 10:37:29;;;;;;;34.50;7.97;;;7.40;99.90;;;;;;4976493;28;20087;-91
2024/01/25 10:39:55;;;;;;;49.45;8.27;;;6.80;99.90;;;;;;5069078;28;20111;-90
2024/01/25 10:42:42;;;;;;;40.03;8.05;;;7.90;99.90;;;;;;5164620;22;20143;-91
2024/01/25 10:45:28;;;;;;;44.33;9.27;;;7.50;99.90;;;;;;5085246;28;20028;-91
2024/01/25 10:47:54;;;;;;;42.80;9.00;;;7.80;99.90;;;;;;5088448;28;20039;-91
2024/01/25 10:50:20;;;;;;;50.83;8.77;;;8.50;99.90;;;;;;5084438;28;20463;-92
2024/01/25 10:53:05;;;;;;;35.78;7.75;;;7.70;99.90;;;;;;5110764;28;20016;-91
2024/01/25 10:55:31;;;;;;;28.88;9.07;;;8.60;99.90;;;;;;5097130;28;20028;-91
2024/01/25 10:57:56;;;;;;;44.05;9.68;;;7.70;99.90;;;;;;5098455;28;20048;-91
2024/01/25 11:00:43;;;;;;;44.38;9.88;;;7.80;99.90;;;;;;5086240;28;20017;-92
2024/01/25 11:03:10;;;;;;;41.58;9.18;;;8.50;99.90;;;;;;5110597;28;20017;-90
2024/01/25 11:05:35;;;;;;;46.42;9.10;;;8.80;99.90;;;;;;5098083;28;20020;-91
2024/01/25 11:08:23;;;;;;;56.75;11.68;;;8.70;99.90;;;;;;5096166;28;20020;-93
2024/01/25 11:10:53;;;;;;;37.15;9.50;;;7.80;99.90;;;;;;5107409;28;20024;-93
2024/01/25 11:13:45;;;;;;;50.10;11.20;;;7.90;99.90;;;;;;5103615;28;20119;-92
2024/01/25 11:16:38;;;;;;;40.42;10.88;;;7.80;99.90;;;;;;5096824;28;20108;-91
2024/01/25 11:19:23;;;;;;;54.38;13.57;;;7.80;99.90;;;;;;5104100;28;20110;-92
2024/01/25 11:21:50;;;;;;;41.25;10.15;;;7.80;99.90;;;;;;5094886;28;20016;-91
2024/01/25 11:24:26;;;;;;;38.45;11.55;;;7.90;99.90;;;;;;5094384;28;20035;-92
2024/01/25 11:27:12;;;;;;;37.70;11.60;;;8.80;99.90;;;;;;5071284;28;20032;-91
2024/01/25 11:29:40;;;;;;;47.35;11.45;;;8.70;99.90;;;;;;5075634;28;20021;-92
2024/01/25 11:32:22;;;;;;;52.53;12.75;;;8.90;99.90;;;;;;5074747;28;20024;-90
2024/01/25 11:35:16;;;;;;;42.20;10.73;;;8.70;99.90;;;;;;5081933;28;20024;-89
2024/01/25 11:37:43;;;;;;;50.78;12.13;;;7.00;99.90;;;;;;5095168;28;20028;-90
2024/01/25 11:40:12;;;;;;;43.50;13.18;;;8.70;99.90;;;;;;5091194;28;20032;-92
2024/01/25 11:42:57;;;;;;;47.00;13.18;;;8.00;99.90;;;;;;5085537;28;20052;-89
2024/01/25 11:45:23;;;;;;;46.28;12.57;;;7.90;99.90;;;;;;5100586;28;20028;-92
2024/01/25 11:47:50;;;;;;;43.65;10.77;;;9.00;99.90;;;;;;5097461;28;20031;-91
2024/01/25 11:50:34;;;;;;;42.63;12.27;;;7.30;99.90;;;;;;5092852;28;20032;-88
2024/01/25 11:53:00;;;;;;;44.58;12.95;;;8.50;99.90;;;;;;5089420;28;20025;-89
2024/01/25 11:55:44;;;;;;;59.97;12.50;;;8.60;99.90;;;;;;5093436;28;20035;-90
2024/01/25 11:58:09;;;;;;;42.47;13.10;;;9.00;99.90;;;;;;5094125;28;20067;-89
2024/01/25 12:00:35;;;;;;;38.22;11.45;;;8.90;99.90;;;;;;5093669;28;20054;-89
2024/01/25 12:03:15;;;;;;;56.35;12.95;;;8.90;99.90;;;;;;5094496;28;20361;-91
2024/01/25 12:05:41;;;;;;;54.33;11.87;;;9.20;99.90;;;;;;5096304;28;20379;-86
2024/01/25 12:08:13;;;;;;;51.10;14.02;;;8.90;99.90;;;;;;5099062;28;20024;-89
2024/01/25 12:11:04;;;;;;;45.08;10.63;;;7.90;99.90;;;;;;5096049;28;20044;-90
2024/01/25 12:13:52;;;;;;;45.40;10.85;;;8.20;99.90;;;;;;5103751;28;20012;-88
2024/01/25 12:16:18;;;;;;;44.65;11.02;;;8.20;99.90;;;;;;5075861;28;20032;-90
2024/01/25 12:18:44;;;;;;;43.22;11.60;;;9.30;99.90;;;;;;5074776;28;20040;-89
2024/01/25 12:21:10;;;;;;;52.08;12.38;;;8.20;99.90;;;;;;5073348;28;20077;-93
2024/01/25 12:23:51;;;;;;;54.38;12.77;;;8.20;99.90;;;;;;5074171;28;20507;-93
2024/01/25 12:26:17;;;;;;;52.88;11.85;;;8.20;99.90;;;;;;5090229;28;20098;-89
2024/01/25 12:28:42;;;;;;;53.17;13.15;;;9.20;99.90;;;;;;5091953;28;20036;-92
2024/01/25 12:31:27;;;;;;;61.28;12.27;;;9.20;99.90;;;;;;5092422;28;20032;-90
2024/01/25 12:33:52;;;;;;;43.28;11.02;;;8.90;99.90;;;;;;5095470;28;20090;-90
2024/01/25 12:36:19;;;;;;;49.70;11.27;;;8.10;99.90;;;;;;5093472;28;20576;-89
2024/01/25 12:39:04;;;;;;;50.30;10.38;;;9.40;99.90;;;;;;5094397;28;20404;-88
2024/01/25 12:41:29;;;;;;;44.80;11.57;;;8.30;99.90;;;;;;5100491;28;20052;-88
2024/01/25 12:43:55;;;;;;;47.42;11.55;;;9.10;99.90;;;;;;5108429;28;20031;-88
2024/01/25 12:46:21;;;;;;;56.97;11.52;;;9.40;99.90;;;;;;5098862;28;20028;-89
2024/01/25 12:48:46;;;;;;;47.35;11.13;;;9.40;99.90;;;;;;5080816;28;20032;-90
2024/01/25 12:51:12;;;;;;;45.92;10.90;;;8.80;99.90;;;;;;5093983;28;20020;-89
2024/01/25 12:53:38;;;;;;;45.80;10.82;;;8.50;99.90;;;;;;5087478;28;20027;-90
2024/01/25 12:56:03;;;;;;;40.45;10.43;;;9.40;99.90;;;;;;5105277;28;20121;-88